sensor_id;sensor_type;location;lat;lon;timestamp;pressure;altitude;pressure_sealevel;temperature
76007;BMP280;64699;0.000;0.000;2023-04-15T00:00:57;99757.00;;;17.81
76007;BMP280;64699;0.000;0.000;2023-04-15T00:03:23;99764.53;;;17.81
76007;BMP280;64699;0.000;0.000;2023-04-15T00:05:48;99754.81;;;17.80
76007;BMP280;64699;0.000;0.000;2023-04-15T00:08:13;99754.81;;;17.80
76007;BMP280;64699;0.000;0.000;2023-04-15T00:10:39;99756.28;;;17.81
76007;BMP280;64699;0.000;0.000;2023-04-15T00:13:04;99760.31;;;17.80
76007;BMP280;64699;0.000;0.000;2023-04-15T00:15:29;99763.06;;;17.80
76007;BMP280;64699;0.000;0.000;2023-04-15T00:17:55;99759.56;;;17.79
76007;BMP280;64699;0.000;0.000;2023-04-15T00:20:20;99757.56;;;17.80
76007;BMP280;64699;0.000;0.000;2023-04-15T00:22:46;99753.38;;;17.79
76007;BMP280;64699;0.000;0.000;2023-04-15T00:25:11;99744.38;;;17.78
76007;BMP280;64699;0.000;0.000;2023-04-15T00:27:37;99742.91;;;17.77
76007;BMP280;64699;0.000;0.000;2023-04-15T00:30:02;99743.63;;;17.78
76007;BMP280;64699;0.000;0.000;2023-04-15T00:32:28;99751.16;;;17.77
76007;BMP280;64699;0.000;0.000;2023-04-15T00:34:54;99762.84;;;17.78
76007;BMP280;64699;0.000;0.000;2023-04-15T00:37:19;99755.88;;;17.77
76007;BMP280;64699;0.000;0.000;2023-04-15T00:39:44;99745.66;;;17.77
76007;BMP280;64699;0.000;0.000;2023-04-15T00:42:09;99754.41;;;17.76
76007;BMP280;64699;0.000;0.000;2023-04-15T00:44:34;99746.91;;;17.76
76007;BMP280;64699;0.000;0.000;2023-04-15T00:47:00;99748.91;;;17.76
76007;BMP280;64699;0.000;0.000;2023-04-15T00:49:26;99746.16;;;17.76
76007;BMP280;64699;0.000;0.000;2023-04-15T00:51:52;99748.91;;;17.76
76007;BMP280;64699;0.000;0.000;2023-04-15T00:54:18;99748.91;;;17.76
76007;BMP280;64699;0.000;0.000;2023-04-15T00:56:43;99753.69;;;17.75
76007;BMP280;64699;0.000;0.000;2023-04-15T00:59:08;99741.94;;;17.75
76007;BMP280;64699;0.000;0.000;2023-04-15T01:01:34;99740.50;;;17.74
76007;BMP280;64699;0.000;0.000;2023-04-15T01:04:00;99744.00;;;17.74
76007;BMP280;64699;0.000;0.000;2023-04-15T01:06:25;99737.75;;;17.74
76007;BMP280;64699;0.000;0.000;2023-04-15T01:08:51;99747.44;;;17.75
76007;BMP280;64699;0.000;0.000;2023-04-15T01:11:17;99740.50;;;17.74
76007;BMP280;64699;0.000;0.000;2023-04-15T01:13:43;99734.25;;;17.73
76007;BMP280;64699;0.000;0.000;2023-04-15T01:16:08;99736.28;;;17.73
76007;BMP280;64699;0.000;0.000;2023-04-15T01:18:34;99739.03;;;17.73
76007;BMP280;64699;0.000;0.000;2023-04-15T01:21:00;99724.53;;;17.72
76007;BMP280;64699;0.000;0.000;2023-04-15T01:23:26;99738.28;;;17.72
76007;BMP280;64699;0.000;0.000;2023-04-15T01:25:51;99743.03;;;17.72
76007;BMP280;64699;0.000;0.000;2023-04-15T01:28:17;99737.56;;;17.72
76007;BMP280;64699;0.000;0.000;2023-04-15T01:30:42;99743.03;;;17.72
76007;BMP280;64699;0.000;0.000;2023-04-15T01:33:08;99743.03;;;17.72
76007;BMP280;64699;0.000;0.000;2023-04-15T01:35:33;99734.81;;;17.72
76007;BMP280;64699;0.000;0.000;2023-04-15T01:38:05;99738.06;;;17.70
76007;BMP280;64699;0.000;0.000;2023-04-15T01:40:31;99738.06;;;17.70
76007;BMP280;64699;0.000;0.000;2023-04-15T01:42:56;99737.56;;;17.72
76007;BMP280;64699;0.000;0.000;2023-04-15T01:45:21;99733.34;;;17.71
76007;BMP280;64699;0.000;0.000;2023-04-15T01:47:47;99734.59;;;17.70
76007;BMP280;64699;0.000;0.000;2023-04-15T01:50:13;99737.34;;;17.70
76007;BMP280;64699;0.000;0.000;2023-04-15T01:52:39;99745.59;;;17.70
76007;BMP280;64699;0.000;0.000;2023-04-15T01:55:04;99738.63;;;17.69
76007;BMP280;64699;0.000;0.000;2023-04-15T01:57:30;99735.88;;;17.69
76007;BMP280;64699;0.000;0.000;2023-04-15T01:59:55;99741.38;;;17.69
76007;BMP280;64699;0.000;0.000;2023-04-15T02:02:20;99743.41;;;17.68
76007;BMP280;64699;0.000;0.000;2023-04-15T02:04:45;99732.94;;;17.67
76007;BMP280;64699;0.000;0.000;2023-04-15T02:07:11;99737.16;;;17.68
76007;BMP280;64699;0.000;0.000;2023-04-15T02:09:36;99730.19;;;17.67
76007;BMP280;64699;0.000;0.000;2023-04-15T02:12:01;99734.41;;;17.68
76007;BMP280;64699;0.000;0.000;2023-04-15T02:14:26;99730.94;;;17.67
76007;BMP280;64699;0.000;0.000;2023-04-15T02:16:51;99724.69;;;17.67
76007;BMP280;64699;0.000;0.000;2023-04-15T02:19:17;99737.16;;;17.68
76007;BMP280;64699;0.000;0.000;2023-04-15T02:21:44;99734.19;;;17.66
76007;BMP280;64699;0.000;0.000;2023-04-15T02:24:10;99732.19;;;17.66
76007;BMP280;64699;0.000;0.000;2023-04-15T02:26:36;99740.41;;;17.66
76007;BMP280;64699;0.000;0.000;2023-04-15T02:29:01;99736.94;;;17.66
76007;BMP280;64699;0.000;0.000;2023-04-15T02:31:26;99738.94;;;17.65
76007;BMP280;64699;0.000;0.000;2023-04-15T02:33:52;99739.69;;;17.66
76007;BMP280;64699;0.000;0.000;2023-04-15T02:36:17;99732.00;;;17.64
76007;BMP280;64699;0.000;0.000;2023-04-15T02:38:42;99727.97;;;17.65
76007;BMP280;64699;0.000;0.000;2023-04-15T02:41:10;99736.78;;;17.64
76007;BMP280;64699;0.000;0.000;2023-04-15T02:43:35;99734.03;;;17.64
76007;BMP280;64699;0.000;0.000;2023-04-15T02:46:01;99734.03;;;17.64
76007;BMP280;64699;0.000;0.000;2023-04-15T02:48:26;99737.50;;;17.64
76007;BMP280;64699;0.000;0.000;2023-04-15T02:50:51;99737.50;;;17.64
76007;BMP280;64699;0.000;0.000;2023-04-15T02:53:16;99732.56;;;17.63
76007;BMP280;64699;0.000;0.000;2023-04-15T02:55:43;99731.28;;;17.64
76007;BMP280;64699;0.000;0.000;2023-04-15T02:58:09;99724.31;;;17.63
76007;BMP280;64699;0.000;0.000;2023-04-15T03:00:34;99725.78;;;17.64
76007;BMP280;64699;0.000;0.000;2023-04-15T03:03:02;99735.31;;;17.63
76007;BMP280;64699;0.000;0.000;2023-04-15T03:05:27;99740.03;;;17.62
76007;BMP280;64699;0.000;0.000;2023-04-15T03:07:53;99734.56;;;17.62
76007;BMP280;64699;0.000;0.000;2023-04-15T03:10:18;99731.06;;;17.62
76007;BMP280;64699;0.000;0.000;2023-04-15T03:12:44;99733.81;;;17.62
76007;BMP280;64699;0.000;0.000;2023-04-15T03:15:09;99733.63;;;17.60
76007;BMP280;64699;0.000;0.000;2023-04-15T03:17:34;99732.31;;;17.61
76007;BMP280;64699;0.000;0.000;2023-04-15T03:20:00;99743.31;;;17.61
76007;BMP280;64699;0.000;0.000;2023-04-15T03:22:25;99736.38;;;17.60
76007;BMP280;64699;0.000;0.000;2023-04-15T03:24:51;99737.13;;;17.60
76007;BMP280;64699;0.000;0.000;2023-04-15T03:27:16;99742.63;;;17.60
76007;BMP280;64699;0.000;0.000;2023-04-15T03:29:41;99731.63;;;17.60
76007;BMP280;64699;0.000;0.000;2023-04-15T03:32:06;99731.63;;;17.60
76007;BMP280;64699;0.000;0.000;2023-04-15T03:34:31;99743.88;;;17.59
76007;BMP280;64699;0.000;0.000;2023-04-15T03:36:56;99732.91;;;17.59
76007;BMP280;64699;0.000;0.000;2023-04-15T03:39:22;99734.16;;;17.58
76007;BMP280;64699;0.000;0.000;2023-04-15T03:41:47;99733.44;;;17.58
76007;BMP280;64699;0.000;0.000;2023-04-15T03:44:12;99742.38;;;17.58
76007;BMP280;64699;0.000;0.000;2023-04-15T03:46:37;99742.38;;;17.58
76007;BMP280;64699;0.000;0.000;2023-04-15T03:49:03;99738.91;;;17.58
76007;BMP280;64699;0.000;0.000;2023-04-15T03:51:28;99737.44;;;17.57
76007;BMP280;64699;0.000;0.000;2023-04-15T03:53:54;99742.94;;;17.57
76007;BMP280;64699;0.000;0.000;2023-04-15T03:56:20;99749.91;;;17.58
76007;BMP280;64699;0.000;0.000;2023-04-15T03:58:45;99746.41;;;17.57
76007;BMP280;64699;0.000;0.000;2023-04-15T04:01:10;99751.19;;;17.57
76007;BMP280;64699;0.000;0.000;2023-04-15T04:03:36;99747.69;;;17.56
76007;BMP280;64699;0.000;0.000;2023-04-15T04:06:01;99744.94;;;17.56
76007;BMP280;64699;0.000;0.000;2023-04-15T04:08:26;99748.44;;;17.57
76007;BMP280;64699;0.000;0.000;2023-04-15T04:10:52;99753.16;;;17.56
76007;BMP280;64699;0.000;0.000;2023-04-15T04:13:17;99751.72;;;17.55
76007;BMP280;64699;0.000;0.000;2023-04-15T04:15:42;99757.22;;;17.55
76007;BMP280;64699;0.000;0.000;2023-04-15T04:18:07;99754.47;;;17.55
76007;BMP280;64699;0.000;0.000;2023-04-15T04:20:33;99751.00;;;17.55
76007;BMP280;64699;0.000;0.000;2023-04-15T04:22:58;99748.78;;;17.53
76007;BMP280;64699;0.000;0.000;2023-04-15T04:25:23;99751.00;;;17.55
76007;BMP280;64699;0.000;0.000;2023-04-15T04:27:48;99740.00;;;17.55
76007;BMP280;64699;0.000;0.000;2023-04-15T04:30:13;99746.97;;;17.56
76007;BMP280;64699;0.000;0.000;2023-04-15T04:32:39;99755.00;;;17.54
76007;BMP280;64699;0.000;0.000;2023-04-15T04:35:04;99751.00;;;17.55
76007;BMP280;64699;0.000;0.000;2023-04-15T04:37:29;99749.50;;;17.54
76007;BMP280;64699;0.000;0.000;2023-04-15T04:39:55;99752.25;;;17.54
76007;BMP280;64699;0.000;0.000;2023-04-15T04:42:20;99752.25;;;17.54
76007;BMP280;64699;0.000;0.000;2023-04-15T04:44:45;99748.78;;;17.53
76007;BMP280;64699;0.000;0.000;2023-04-15T04:47:11;99753.53;;;17.53
76007;BMP280;64699;0.000;0.000;2023-04-15T04:49:36;99747.31;;;17.52
76007;BMP280;64699;0.000;0.000;2023-04-15T04:52:01;99752.78;;;17.52
76007;BMP280;64699;0.000;0.000;2023-04-15T04:54:26;99752.03;;;17.52
76007;BMP280;64699;0.000;0.000;2023-04-15T04:56:52;99749.28;;;17.52
76007;BMP280;64699;0.000;0.000;2023-04-15T04:59:17;99752.03;;;17.52
76007;BMP280;64699;0.000;0.000;2023-04-15T05:01:42;99754.06;;;17.51
76007;BMP280;64699;0.000;0.000;2023-04-15T05:04:08;99757.53;;;17.52
76007;BMP280;64699;0.000;0.000;2023-04-15T05:06:33;99756.09;;;17.51
76007;BMP280;64699;0.000;0.000;2023-04-15T05:09:00;99750.59;;;17.51
76007;BMP280;64699;0.000;0.000;2023-04-15T05:11:25;99750.59;;;17.51
76007;BMP280;64699;0.000;0.000;2023-04-15T05:13:50;99749.84;;;17.50
76007;BMP280;64699;0.000;0.000;2023-04-15T05:16:16;99755.34;;;17.50
76007;BMP280;64699;0.000;0.000;2023-04-15T05:18:41;99750.59;;;17.51
76007;BMP280;64699;0.000;0.000;2023-04-15T05:21:06;99749.84;;;17.50
76007;BMP280;64699;0.000;0.000;2023-04-15T05:23:32;99753.84;;;17.49
76007;BMP280;64699;0.000;0.000;2023-04-15T05:25:57;99741.41;;;17.48
76007;BMP280;64699;0.000;0.000;2023-04-15T05:28:23;99753.13;;;17.49
76007;BMP280;64699;0.000;0.000;2023-04-15T05:30:48;99757.88;;;17.48
76007;BMP280;64699;0.000;0.000;2023-04-15T05:33:13;99753.13;;;17.49
76007;BMP280;64699;0.000;0.000;2023-04-15T05:35:38;99761.38;;;17.49
76007;BMP280;64699;0.000;0.000;2023-04-15T05:38:03;99757.88;;;17.48
76007;BMP280;64699;0.000;0.000;2023-04-15T05:40:29;99765.41;;;17.48
76007;BMP280;64699;0.000;0.000;2023-04-15T05:42:54;99765.41;;;17.48
76007;BMP280;64699;0.000;0.000;2023-04-15T05:45:20;99768.13;;;17.48
76007;BMP280;64699;0.000;0.000;2023-04-15T05:47:45;99757.16;;;17.48
76007;BMP280;64699;0.000;0.000;2023-04-15T05:50:10;99762.66;;;17.48
76007;BMP280;64699;0.000;0.000;2023-04-15T05:52:36;99768.13;;;17.48
76007;BMP280;64699;0.000;0.000;2023-04-15T05:55:01;99763.88;;;17.47
76007;BMP280;64699;0.000;0.000;2023-04-15T05:57:26;99759.16;;;17.47
76007;BMP280;64699;0.000;0.000;2023-04-15T05:59:51;99766.72;;;17.54
76007;BMP280;64699;0.000;0.000;2023-04-15T06:02:17;99761.25;;;17.62
76007;BMP280;64699;0.000;0.000;2023-04-15T06:04:42;99769.13;;;17.58
76007;BMP280;64699;0.000;0.000;2023-04-15T06:07:08;99769.47;;;17.54
76007;BMP280;64699;0.000;0.000;2023-04-15T06:09:33;99771.25;;;17.52
76007;BMP280;64699;0.000;0.000;2023-04-15T06:11:58;99776.59;;;17.50
76007;BMP280;64699;0.000;0.000;2023-04-15T06:14:24;99772.97;;;17.55
76007;BMP280;64699;0.000;0.000;2023-04-15T06:16:49;99782.00;;;17.63
76007;BMP280;64699;0.000;0.000;2023-04-15T06:27:00;99782.06;;;17.50
76007;BMP280;64699;0.000;0.000;2023-04-15T06:29:26;99774.00;;;17.52
76007;BMP280;64699;0.000;0.000;2023-04-15T06:31:51;99776.75;;;17.52
76007;BMP280;64699;0.000;0.000;2023-04-15T06:34:16;99789.22;;;17.53
76007;BMP280;64699;0.000;0.000;2023-04-15T06:36:41;99786.47;;;17.53
76007;BMP280;64699;0.000;0.000;2023-04-15T06:39:07;99783.00;;;17.52
76007;BMP280;64699;0.000;0.000;2023-04-15T06:41:32;99780.25;;;17.52
76007;BMP280;64699;0.000;0.000;2023-04-15T06:43:58;99783.00;;;17.52
76007;BMP280;64699;0.000;0.000;2023-04-15T06:46:23;99789.44;;;17.55
76007;BMP280;64699;0.000;0.000;2023-04-15T06:48:48;99780.63;;;17.56
76007;BMP280;64699;0.000;0.000;2023-04-15T06:51:13;99789.63;;;17.57
76007;BMP280;64699;0.000;0.000;2023-04-15T06:53:39;99785.44;;;17.56
76007;BMP280;64699;0.000;0.000;2023-04-15T06:56:06;99796.06;;;17.59
76007;BMP280;64699;0.000;0.000;2023-04-15T06:58:32;99794.63;;;17.66
76007;BMP280;64699;0.000;0.000;2023-04-15T07:00:57;99796.97;;;17.62
76007;BMP280;64699;0.000;0.000;2023-04-15T07:03:23;99800.28;;;17.60
76007;BMP280;64699;0.000;0.000;2023-04-15T07:05:48;99793.50;;;17.61
76007;BMP280;64699;0.000;0.000;2023-04-15T07:08:13;99782.78;;;17.50
76007;BMP280;64699;0.000;0.000;2023-04-15T07:10:38;99798.06;;;17.59
76007;BMP280;64699;0.000;0.000;2023-04-15T07:13:04;99816.19;;;17.62
76007;BMP280;64699;0.000;0.000;2023-04-15T07:15:29;99801.22;;;17.63
76007;BMP280;64699;0.000;0.000;2023-04-15T07:17:55;99804.69;;;17.63
76007;BMP280;64699;0.000;0.000;2023-04-15T07:20:20;99805.22;;;17.62
76007;BMP280;64699;0.000;0.000;2023-04-15T07:22:45;99808.19;;;17.64
76007;BMP280;64699;0.000;0.000;2023-04-15T07:25:10;99810.72;;;17.62
76007;BMP280;64699;0.000;0.000;2023-04-15T07:27:35;99820.22;;;17.61
76007;BMP280;64699;0.000;0.000;2023-04-15T07:30:01;99814.72;;;17.61
76007;BMP280;64699;0.000;0.000;2023-04-15T07:32:26;99820.22;;;17.61
76007;BMP280;64699;0.000;0.000;2023-04-15T07:34:51;99815.47;;;17.61
76007;BMP280;64699;0.000;0.000;2023-04-15T07:37:17;99792.72;;;17.53
76007;BMP280;64699;0.000;0.000;2023-04-15T07:39:42;99808.19;;;17.64
76007;BMP280;64699;0.000;0.000;2023-04-15T07:42:08;99803.75;;;17.61
76007;BMP280;64699;0.000;0.000;2023-04-15T07:44:33;99802.28;;;17.60
76007;BMP280;64699;0.000;0.000;2023-04-15T07:46:58;99809.81;;;17.59
76007;BMP280;64699;0.000;0.000;2023-04-15T07:49:24;99802.28;;;17.60
76007;BMP280;64699;0.000;0.000;2023-04-15T07:51:49;99801.44;;;17.65
76007;BMP280;64699;0.000;0.000;2023-04-15T07:54:15;99804.75;;;17.71
76007;BMP280;64699;0.000;0.000;2023-04-15T07:56:43;99800.13;;;17.66
76007;BMP280;64699;0.000;0.000;2023-04-15T07:59:08;99806.91;;;17.65
76007;BMP280;64699;0.000;0.000;2023-04-15T08:01:34;99797.22;;;17.64
76007;BMP280;64699;0.000;0.000;2023-04-15T08:03:59;99804.22;;;17.72
76007;BMP280;64699;0.000;0.000;2023-04-15T08:06:24;99814.69;;;17.74
76007;BMP280;64699;0.000;0.000;2023-04-15T08:08:51;99807.00;;;17.80
76007;BMP280;64699;0.000;0.000;2023-04-15T08:11:16;99807.50;;;17.71
76007;BMP280;64699;0.000;0.000;2023-04-15T08:13:42;99809.56;;;17.78
76007;BMP280;64699;0.000;0.000;2023-04-15T08:16:15;99788.97;;;17.64
76007;BMP280;64699;0.000;0.000;2023-04-15T08:18:42;99807.28;;;17.41
76007;BMP280;64699;0.000;0.000;2023-04-15T08:21:07;99803.56;;;17.39
76007;BMP280;64699;0.000;0.000;2023-04-15T08:23:33;99803.94;;;17.42
76007;BMP280;64699;0.000;0.000;2023-04-15T08:25:58;99810.56;;;17.47
76007;BMP280;64699;0.000;0.000;2023-04-15T08:28:23;99810.81;;;17.49
76007;BMP280;64699;0.000;0.000;2023-04-15T08:30:49;99804.03;;;17.50
76007;BMP280;64699;0.000;0.000;2023-04-15T08:33:14;99819.03;;;17.49
76007;BMP280;64699;0.000;0.000;2023-04-15T08:35:40;99817.78;;;17.50
76007;BMP280;64699;0.000;0.000;2023-04-15T08:38:05;99816.53;;;17.38
76007;BMP280;64699;0.000;0.000;2023-04-15T08:40:39;99820.75;;;17.39
76007;BMP280;64699;0.000;0.000;2023-04-15T08:43:04;99814.03;;;17.40
76007;BMP280;64699;0.000;0.000;2023-04-15T08:45:32;99810.19;;;17.43
76007;BMP280;64699;0.000;0.000;2023-04-15T08:47:57;99813.13;;;17.45
76007;BMP280;64699;0.000;0.000;2023-04-15T08:50:23;99809.66;;;17.44
76007;BMP280;64699;0.000;0.000;2023-04-15T08:52:49;99812.41;;;17.44
76007;BMP280;64699;0.000;0.000;2023-04-15T08:55:17;99816.91;;;17.55
76007;BMP280;64699;0.000;0.000;2023-04-15T08:57:43;99817.28;;;17.59
76007;BMP280;64699;0.000;0.000;2023-04-15T09:00:09;99826.16;;;17.65
76007;BMP280;64699;0.000;0.000;2023-04-15T09:02:34;99822.16;;;17.73
76007;BMP280;64699;0.000;0.000;2023-04-15T09:04:59;99824.13;;;17.45
76007;BMP280;64699;0.000;0.000;2023-04-15T09:09:12;99822.63;;;17.24
76007;BMP280;64699;0.000;0.000;2023-04-15T09:11:40;99829.72;;;17.19
76007;BMP280;64699;0.000;0.000;2023-04-15T09:14:06;99833.19;;;17.20
76007;BMP280;64699;0.000;0.000;2023-04-15T09:16:32;99828.13;;;17.24
76007;BMP280;64699;0.000;0.000;2023-04-15T09:19:20;99831.81;;;17.26
76007;BMP280;64699;0.000;0.000;2023-04-15T09:21:46;99831.25;;;17.28
76007;BMP280;64699;0.000;0.000;2023-04-15T09:24:11;99839.50;;;17.28
76007;BMP280;64699;0.000;0.000;2023-04-15T09:26:36;99832.00;;;17.28
76007;BMP280;64699;0.000;0.000;2023-04-15T09:31:30;99830.94;;;17.31
76007;BMP280;64699;0.000;0.000;2023-04-15T09:33:55;99826.22;;;17.32
76007;BMP280;64699;0.000;0.000;2023-04-15T09:36:21;99829.88;;;17.34
76007;BMP280;64699;0.000;0.000;2023-04-15T09:38:55;99828.94;;;17.32
76007;BMP280;64699;0.000;0.000;2023-04-15T09:41:21;99828.34;;;17.26
76007;BMP280;64699;0.000;0.000;2023-04-15T09:43:47;99837.19;;;17.32
76007;BMP280;64699;0.000;0.000;2023-04-15T09:46:12;99831.53;;;17.17
76007;BMP280;64699;0.000;0.000;2023-04-15T09:48:37;99832.75;;;16.95
76007;BMP280;64699;0.000;0.000;2023-04-15T09:51:03;99831.94;;;16.87
76007;BMP280;64699;0.000;0.000;2023-04-15T09:53:28;99835.91;;;16.99
76007;BMP280;64699;0.000;0.000;2023-04-15T09:55:54;99831.22;;;17.20
76007;BMP280;64699;0.000;0.000;2023-04-15T09:58:24;99843.19;;;17.30
76007;BMP280;64699;0.000;0.000;2023-04-15T10:00:50;99847.84;;;17.35
76007;BMP280;64699;0.000;0.000;2023-04-15T10:48:34;99846.31;;;17.14
76007;BMP280;64699;0.000;0.000;2023-04-15T10:51:00;99846.31;;;17.14
76007;BMP280;64699;0.000;0.000;2023-04-15T10:53:29;99839.94;;;17.19
76007;BMP280;64699;0.000;0.000;2023-04-15T10:55:56;99848.31;;;17.13
76007;BMP280;64699;0.000;0.000;2023-04-15T10:58:24;99851.06;;;17.13
76007;BMP280;64699;0.000;0.000;2023-04-15T11:00:50;99852.34;;;17.12
76007;BMP280;64699;0.000;0.000;2023-04-15T11:03:41;99850.88;;;17.11
76007;BMP280;64699;0.000;0.000;2023-04-15T11:06:04;99856.38;;;17.11
76007;BMP280;64699;0.000;0.000;2023-04-15T11:11:13;99856.16;;;17.09
76007;BMP280;64699;0.000;0.000;2023-04-15T11:13:46;99855.53;;;17.03
76007;BMP280;64699;0.000;0.000;2023-04-15T11:16:11;99861.53;;;16.55
76007;BMP280;64699;0.000;0.000;2023-04-15T11:18:36;99857.72;;;16.71
76007;BMP280;64699;0.000;0.000;2023-04-15T11:21:05;99863.91;;;16.85
76007;BMP280;64699;0.000;0.000;2023-04-15T11:25:56;99867.88;;;16.97
76007;BMP280;64699;0.000;0.000;2023-04-15T11:28:24;99866.38;;;16.37
76007;BMP280;64699;0.000;0.000;2023-04-15T11:30:49;99876.81;;;16.51
76007;BMP280;64699;0.000;0.000;2023-04-15T11:33:15;99872.91;;;16.72
76007;BMP280;64699;0.000;0.000;2023-04-15T11:35:40;99874.13;;;16.84
76007;BMP280;64699;0.000;0.000;2023-04-15T11:38:09;99874.75;;;16.90
76007;BMP280;64699;0.000;0.000;2023-04-15T11:40:36;99879.63;;;16.58
76007;BMP280;64699;0.000;0.000;2023-04-15T11:45:30;99887.66;;;16.18
76007;BMP280;64699;0.000;0.000;2023-04-15T11:48:03;99879.59;;;15.94
76007;BMP280;64699;0.000;0.000;2023-04-15T11:50:29;99888.19;;;16.29
76007;BMP280;64699;0.000;0.000;2023-04-15T11:52:55;99898.41;;;16.54
76007;BMP280;64699;0.000;0.000;2023-04-15T11:55:20;99900.13;;;16.70
76007;BMP280;64699;0.000;0.000;2023-04-15T11:57:47;99902.44;;;16.79
76007;BMP280;64699;0.000;0.000;2023-04-15T12:00:13;99895.81;;;17.08
76007;BMP280;64699;0.000;0.000;2023-04-15T12:02:38;99894.81;;;16.47
76007;BMP280;64699;0.000;0.000;2023-04-15T12:05:06;99895.88;;;16.44
76007;BMP280;64699;0.000;0.000;2023-04-15T12:07:32;99897.25;;;16.50
76007;BMP280;64699;0.000;0.000;2023-04-15T12:09:57;99909.91;;;16.66
76007;BMP280;64699;0.000;0.000;2023-04-15T12:12:26;99911.63;;;16.82
76007;BMP280;64699;0.000;0.000;2023-04-15T12:14:52;99911.91;;;16.91
76007;BMP280;64699;0.000;0.000;2023-04-15T12:17:17;99907.81;;;16.98
76007;BMP280;64699;0.000;0.000;2023-04-15T12:19:43;99921.94;;;17.02
76007;BMP280;64699;0.000;0.000;2023-04-15T12:22:12;99918.09;;;17.05
76007;BMP280;64699;0.000;0.000;2023-04-15T12:24:39;99917.59;;;17.06
76007;BMP280;64699;0.000;0.000;2023-04-15T12:27:08;99917.06;;;17.08
76007;BMP280;64699;0.000;0.000;2023-04-15T12:29:34;99919.28;;;17.09
76007;BMP280;64699;0.000;0.000;2023-04-15T12:32:06;99924.00;;;17.09
76007;BMP280;64699;0.000;0.000;2023-04-15T12:34:33;99915.28;;;17.10
76007;BMP280;64699;0.000;0.000;2023-04-15T12:37:01;99927.72;;;17.11
76007;BMP280;64699;0.000;0.000;2023-04-15T12:39:27;99930.47;;;17.11
76007;BMP280;64699;0.000;0.000;2023-04-15T12:41:53;99916.75;;;17.11
76007;BMP280;64699;0.000;0.000;2023-04-15T12:44:22;99922.22;;;17.11
76007;BMP280;64699;0.000;0.000;2023-04-15T12:46:47;99929.00;;;17.10
76007;BMP280;64699;0.000;0.000;2023-04-15T12:49:13;99921.47;;;17.11
76007;BMP280;64699;0.000;0.000;2023-04-15T12:51:40;99929.00;;;17.10
76007;BMP280;64699;0.000;0.000;2023-04-15T12:54:05;99922.97;;;17.12
76007;BMP280;64699;0.000;0.000;2023-04-15T12:56:30;99922.22;;;17.11
76007;BMP280;64699;0.000;0.000;2023-04-15T12:58:55;99926.97;;;17.11
76007;BMP280;64699;0.000;0.000;2023-04-15T13:01:21;99924.22;;;17.11
76007;BMP280;64699;0.000;0.000;2023-04-15T13:03:46;99937.44;;;17.12
76007;BMP280;64699;0.000;0.000;2023-04-15T13:06:12;99940.19;;;17.12
76007;BMP280;64699;0.000;0.000;2023-04-15T13:08:37;99946.41;;;17.13
76007;BMP280;64699;0.000;0.000;2023-04-15T13:11:02;99951.88;;;17.13
76007;BMP280;64699;0.000;0.000;2023-04-15T13:13:27;99948.41;;;17.12
76007;BMP280;64699;0.000;0.000;2023-04-15T13:15:53;99955.34;;;17.13
76007;BMP280;64699;0.000;0.000;2023-04-15T13:18:18;99950.69;;;16.18
76007;BMP280;64699;0.000;0.000;2023-04-15T13:20:44;99957.09;;;15.89
76007;BMP280;64699;0.000;0.000;2023-04-15T13:23:09;99955.84;;;15.90
76007;BMP280;64699;0.000;0.000;2023-04-15T13:25:34;99965.63;;;15.85
76007;BMP280;64699;0.000;0.000;2023-04-15T13:27:59;99972.00;;;15.75
76007;BMP280;64699;0.000;0.000;2023-04-15T13:30:25;99971.72;;;15.60
76007;BMP280;64699;0.000;0.000;2023-04-15T13:32:51;99973.16;;;15.61
76007;BMP280;64699;0.000;0.000;2023-04-15T13:35:17;99966.06;;;15.89
76007;BMP280;64699;0.000;0.000;2023-04-15T13:37:43;99970.94;;;16.28
76007;BMP280;64699;0.000;0.000;2023-04-15T13:40:08;99967.28;;;16.64
76007;BMP280;64699;0.000;0.000;2023-04-15T13:42:33;99964.97;;;16.81
76007;BMP280;64699;0.000;0.000;2023-04-15T13:44:59;99964.91;;;16.86
76007;BMP280;64699;0.000;0.000;2023-04-15T13:47:24;99970.28;;;16.92
76007;BMP280;64699;0.000;0.000;2023-04-15T13:49:49;99964.69;;;16.97
76007;BMP280;64699;0.000;0.000;2023-04-15T13:52:16;99967.84;;;17.01
76007;BMP280;64699;0.000;0.000;2023-04-15T13:54:42;99966.78;;;17.04
76007;BMP280;64699;0.000;0.000;2023-04-15T13:57:07;99962.75;;;17.05
76007;BMP280;64699;0.000;0.000;2023-04-15T13:59:32;99956.75;;;17.07
76007;BMP280;64699;0.000;0.000;2023-04-15T14:01:58;99961.59;;;17.14
76007;BMP280;64699;0.000;0.000;2023-04-15T14:04:24;99954.22;;;17.22
76007;BMP280;64699;0.000;0.000;2023-04-15T14:06:49;99980.47;;;17.30
76007;BMP280;64699;0.000;0.000;2023-04-15T14:09:14;99978.78;;;17.27
76007;BMP280;64699;0.000;0.000;2023-04-15T14:11:40;99975.59;;;17.23
76007;BMP280;64699;0.000;0.000;2023-04-15T14:14:05;99967.38;;;17.23
76007;BMP280;64699;0.000;0.000;2023-04-15T14:16:33;99972.13;;;17.23
76007;BMP280;64699;0.000;0.000;2023-04-15T14:18:58;99966.63;;;17.23
76007;BMP280;64699;0.000;0.000;2023-04-15T14:21:24;99964.44;;;17.21
76007;BMP280;64699;0.000;0.000;2023-04-15T14:23:51;99973.44;;;17.22
76007;BMP280;64699;0.000;0.000;2023-04-15T14:26:17;99971.41;;;17.22
76007;BMP280;64699;0.000;0.000;2023-04-15T14:28:42;99973.59;;;17.24
76007;BMP280;64699;0.000;0.000;2023-04-15T14:31:08;99971.41;;;17.22
76007;BMP280;64699;0.000;0.000;2023-04-15T14:33:34;99971.41;;;17.22
76007;BMP280;64699;0.000;0.000;2023-04-15T14:35:59;99969.38;;;17.23
76007;BMP280;64699;0.000;0.000;2023-04-15T14:38:24;99971.63;;;17.24
76007;BMP280;64699;0.000;0.000;2023-04-15T14:40:49;99979.09;;;17.24
76007;BMP280;64699;0.000;0.000;2023-04-15T14:43:15;99983.22;;;17.30
76007;BMP280;64699;0.000;0.000;2023-04-15T14:45:41;99991.69;;;17.32
76007;BMP280;64699;0.000;0.000;2023-04-15T14:48:06;99991.44;;;17.30
76007;BMP280;64699;0.000;0.000;2023-04-15T14:50:33;99983.00;;;17.28
76007;BMP280;64699;0.000;0.000;2023-04-15T14:52:59;99992.53;;;17.27
76007;BMP280;64699;0.000;0.000;2023-04-15T14:55:24;99997.88;;;17.33
76007;BMP280;64699;0.000;0.000;2023-04-15T14:57:49;100009.00;;;17.27
76007;BMP280;64699;0.000;0.000;2023-04-15T15:00:14;100014.28;;;17.25
76007;BMP280;64699;0.000;0.000;2023-04-15T15:02:40;100012.78;;;17.24
76007;BMP280;64699;0.000;0.000;2023-04-15T15:05:06;100015.53;;;17.24
76007;BMP280;64699;0.000;0.000;2023-04-15T15:07:31;100016.78;;;17.23
76007;BMP280;64699;0.000;0.000;2023-04-15T15:09:56;100018.06;;;17.22
76007;BMP280;64699;0.000;0.000;2023-04-15T15:12:22;100020.28;;;17.24
76007;BMP280;64699;0.000;0.000;2023-04-15T15:14:47;100021.53;;;17.23
76007;BMP280;64699;0.000;0.000;2023-04-15T15:17:13;100019.53;;;17.23